METAR Data
IDs: Format: Raw Decoded Include TAF

Data at: 0629 UTC 24 Sep 2018

KVBW 240615Z AUTO 36003KT 7SM OVC006 14/14 A3026 RMK AO2 T01440144
KVBW 240555Z AUTO 02003KT 7SM OVC006 14/14 A3026 RMK AO2 60002 T01430143 10148 20142 401530130
KVBW 240535Z AUTO 00000KT 10SM OVC006 14/14 A3026 RMK AO2 T01440144
KVBW 240515Z AUTO 01003KT 10SM OVC006 14/14 A3026 RMK AO2 T01440144
KVBW 240455Z AUTO 00000KT 10SM OVC006 14/14 A3026 RMK AO2 T01430143
KVBW 240435Z AUTO 00000KT 10SM OVC006 14/14 A3026 RMK AO2 T01430143
KVBW 240415Z AUTO 00000KT 10SM OVC006 14/14 A3026 RMK AO2 T01430143
KVBW 240355Z AUTO 00000KT 10SM OVC006 14/14 A3026 RMK AO2 P0002 T01420142
KVBW 240330Z AUTO 00000KT 10SM OVC006 14/14 A3026 RMK AO2 P0001 T01430143
KVBW 240315Z AUTO 00000KT 10SM OVC006 14/14 A3026 RMK AO2 T01430143
KVBW 240255Z AUTO 02003KT 10SM OVC004 14/14 A3026 RMK AO2 T01420142
KVBW 240235Z AUTO 00000KT 4SM BKN004 OVC010 14/14 A3026 RMK AO2 T01430143
KVBW 240215Z AUTO 00000KT 5SM BKN006 OVC009 14/14 A3025 RMK AO2 T01430143
KVBW 240155Z AUTO 00000KT 3SM OVC006 14/14 A3026 RMK AO2 T01440144
KVBW 240135Z AUTO 01004KT 3SM OVC006 15/15 A3025 RMK AO2 T01450145
KVBW 240115Z AUTO 01003KT 4SM OVC006 15/15 A3024 RMK AO2 T01450145
KVBW 240050Z AUTO 00000KT 4SM OVC008 15/15 A3024 RMK AO2 T01450145
KVBW 240035Z AUTO 00000KT 5SM OVC008 15/15 A3023 RMK AO2 T01470147
KVBW 240015Z AUTO 03003KT 10SM OVC008 15/15 A3022 RMK AO2 T01470146
KVBW 232355Z AUTO 00000KT 10SM BKN008 OVC014 15/15 A3022 RMK AO2 T01480146 10152 20145
KVBW 232335Z AUTO 00000KT 10SM BKN010 OVC016 15/15 A3022 RMK AO2 T01500147
KVBW 232315Z AUTO 00000KT 10SM OVC008 15/15 A3021 RMK AO2 T01500149
KVBW 232255Z AUTO 00000KT 10SM OVC008 15/15 A3021 RMK AO2 T01500147
KVBW 232235Z AUTO 00000KT 10SM OVC008 15/15 A3021 RMK AO2 T01510147
KVBW 232215Z AUTO 00000KT 10SM BKN008 OVC017 15/15 A3021 RMK AO2 T01510148
KVBW 232155Z AUTO 00000KT 10SM OVC008 15/15 A3020 RMK AO2 T01500148
KVBW 232130Z AUTO 00000KT 10SM BKN008 OVC016 15/15 A3020 RMK AO2 T01500149
KVBW 232115Z AUTO 02003KT 10SM BKN008 OVC018 15/15 A3020 RMK AO2 T01500148
KVBW 232055Z AUTO 02003KT 10SM SCT008 OVC016 15/15 A3020 RMK AO2 T01500146
KVBW 232030Z AUTO 01004KT 10SM BKN008 OVC014 15/15 A3020 RMK AO2 T01480145
KVBW 232015Z AUTO 00000KT 10SM BKN008 OVC014 15/15 A3021 RMK AO2 T01490145
KVBW 231955Z AUTO 02003KT 10SM OVC010 15/15 A3020 RMK AO2 T01500145
KVBW 231930Z AUTO 00000KT 10SM SCT009 OVC015 15/14 A3020 RMK AO2 T01510144
KVBW 231915Z AUTO 01004KT 10SM SCT009 OVC015 15/14 A3020 RMK AO2 T01500141
KVBW 231855Z AUTO 02004KT 10SM BKN007 OVC013 15/14 A3021 RMK AO2 T01480144
KVBW 231835Z AUTO 00000KT 10SM OVC007 15/14 A3021 RMK AO2 T01460144
KVBW 231815Z AUTO 00000KT 7SM OVC007 15/14 A3021 RMK AO2 T01450143
KVBW 231755Z AUTO 00000KT 10SM OVC007 15/14 A3022 RMK AO2 60002 T01450143 10145 20130
KVBW 231735Z AUTO 00000KT 7SM OVC007 15/14 A3022 RMK AO2 T01450142
KVBW 231715Z AUTO 02005KT 7SM OVC007 15/14 A3022 RMK AO2 T01450143
KVBW 231655Z AUTO 02003KT 7SM BKN007 OVC016 14/14 A3022 RMK AO2 T01430143
KVBW 231635Z AUTO 03004KT 3SM OVC009 14/14 A3022 RMK AO2 T01410141
KVBW 231615Z AUTO 01004KT 4SM OVC007 14/14 A3022 RMK AO2 T01440144
KVBW 231555Z AUTO 36003KT 3SM OVC007 14/14 A3022 RMK AO2 T01440144
KVBW 231530Z AUTO 00000KT 3SM OVC007 14/14 A3022 RMK AO2 T01430142
KVBW 231515Z AUTO 00000KT 7SM OVC007 14/14 A3022 RMK AO2 T01420140
KVBW 231450Z AUTO 00000KT 10SM BKN009 OVC022 14/14 A3022 RMK AO2 60002 T01430142
KVBW 231435Z AUTO 32003KT 10SM OVC009 14/14 A3022 RMK AO2 T01410141
KVBW 231415Z AUTO 00000KT 10SM OVC007 14/14 A3022 RMK AO2 T01400140
KVBW 231355Z AUTO 00000KT 10SM OVC005 14/14 A3022 RMK AO2 P0002 T01380138
KVBW 231335Z AUTO 00000KT 5SM OVC005 14/14 A3021 RMK AO2 P0001 T01360136
KVBW 231315Z AUTO 08003KT 3SM BKN005 OVC022 14/14 A3020 RMK AO2 P0001 T01350135
KVBW 231255Z AUTO 02003KT 7SM BKN005 OVC022 13/13 A3021 RMK AO2 T01330133
KVBW 231235Z AUTO 02003KT 5SM OVC007 13/13 A3021 RMK AO2 T01310131
KVBW 231215Z AUTO 02003KT 4SM OVC007 13/13 A3021 RMK AO2 T01300130
KVBW 231155Z AUTO 01003KT 4SM BKN007 OVC023 13/13 A3019 RMK AO2 60071 70121 T01300130 10153 20130
KVBW 231135Z AUTO 02005KT 4SM OVC023 13/13 A3019 RMK AO2 T01300130
KVBW 231115Z AUTO 01004KT 7SM SCT007 OVC023 13/13 A3019 RMK AO2 T01300130
KVBW 231055Z AUTO 03004KT 10SM OVC007 13/13 A3018 RMK AO2 T01320132
KVBW 231035Z AUTO 00000KT 10SM BKN007 OVC023 14/14 A3018 RMK AO2 T01350135
KVBW 231015Z AUTO 01003KT 10SM SCT007 BKN023 OVC029 14/14 A3017 RMK AO2 T01360135
KVBW 230955Z AUTO 00000KT 10SM SCT009 OVC023 14/14 A3017 RMK AO2 P0001 T01350135
KVBW 230935Z AUTO 02004KT 10SM BKN021 OVC030 14/14 A3017 RMK AO2 P0001 T01350135
KVBW 230915Z AUTO 03003KT 10SM SCT008 BKN021 OVC030 14/14 A3017 RMK AO2 T01360135
KVBW 230850Z AUTO 01003KT 7SM SCT010 BKN021 OVC030 14/14 A3017 RMK AO2 P0033 60069 T01360136
KVBW 230830Z AUTO 03004KT 5SM SCT005 BKN012 OVC021 14/14 A3018 RMK AO2 P0028 T01350135
KVBW 230815Z AUTO 02003KT 1 1/2SM BKN005 BKN012 OVC026 14/14 A3018 RMK AO2 P0022 T01410141
KVBW 230755Z AUTO 04003KT 2SM SCT007 BKN026 OVC034 15/15 A3017 RMK AO2 P0030 T01450145
KVBW 230735Z AUTO 04003KT 4SM SCT007 OVC024 15/15 A3017 RMK AO2 P0012 T01500150
KVBW 230715Z AUTO 01003KT 5SM SCT009 SCT012 OVC026 15/15 A3017 RMK AO2 P0005 T01520152
KVBW 230655Z AUTO 00000KT 10SM BKN009 OVC027 15/15 A3018 RMK AO2 P0005 T01520152
KVBW 230635Z AUTO 00000KT 10SM BKN009 BKN016 OVC023 15/15 A3019 RMK AO2 P0002 T01520152
KVBW 230615Z AUTO 30003KT 10SM SCT018 OVC023 15/15 A3020 RMK AO2 P0001 T01520152
KVBW 230555Z AUTO 00000KT 10SM BKN023 OVC050 15/15 A3019 RMK AO2 P0027 60050 T01500150 10187 20150 402330150
KVBW 230535Z AUTO 00000KT 2 1/2SM BKN026 BKN031 OVC055 15/15 A3019 RMK AO2 P0025 T01500150
KVBW 230515Z AUTO 00000KT 7SM BKN029 BKN049 OVC070 15/15 A3020 RMK AO2 P0004 T01540153
KVBW 230455Z AUTO 00000KT 5SM SCT031 BKN070 OVC110 16/15 A3020 RMK AO2 P0014 T01550151
KVBW 230435Z AUTO 05003KT 4SM SCT034 BKN085 OVC110 16/15 A3020 RMK AO2 P0007 T01560154
KVBW 230415Z AUTO 00000KT 7SM OVC034 16/16 A3022 RMK AO2 P0002 T01590156
KVBW 230355Z AUTO 00000KT 5SM OVC034 16/16 A3022 RMK AO2 P0009 T01610155
KVBW 230335Z AUTO 00000KT 7SM OVC034 17/16 A3021 RMK AO2 P0003 T01650157
KVBW 230315Z AUTO 00000KT 7SM OVC032 17/16 A3021 RMK AO2 P0001 T01690155
KVBW 230255Z AUTO 00000KT 10SM OVC030 17/15 A3021 RMK AO2 T01710154
KVBW 230235Z AUTO 00000KT 10SM OVC030 17/16 A3020 RMK AO2 T01700155
KVBW 230215Z AUTO 00000KT 10SM OVC030 17/16 A3020 RMK AO2 T01700155
KVBW 230155Z AUTO 00000KT 10SM OVC028 17/16 A3020 RMK AO2 T01700155
KVBW 230135Z AUTO 01003KT 10SM OVC030 17/15 A3020 RMK AO2 T01710154
KVBW 230115Z AUTO 35004KT 10SM OVC030 17/15 A3020 RMK AO2 T01740153
KVBW 230055Z AUTO 35003KT 10SM OVC030 18/16 A3018 RMK AO2 T01790159
KVBW 230035Z AUTO 00000KT 10SM OVC030 18/16 A3018 RMK AO2 T01800156
KVBW 230015Z AUTO 01004KT 10SM OVC030 19/16 A3018 RMK AO2 T01850159
KVBW 222355Z AUTO 36003KT 10SM OVC030 19/16 A3018 RMK AO2 T01870163 10211 20185
KVBW 222335Z AUTO 03003KT 10SM OVC032 19/16 A3017 RMK AO2 T01900161
KVBW 222315Z AUTO 00000KT 10SM OVC030 19/16 A3017 RMK AO2 T01910160
KVBW 222255Z AUTO 07003KT 10SM OVC028 19/16 A3017 RMK AO2 T01910159
KVBW 222235Z AUTO 05003KT 10SM OVC028 19/16 A3016 RMK AO2 T01920157
KVBW 222215Z AUTO 00000KT 10SM OVC028 20/16 A3016 RMK AO2 T01950155
KVBW 222155Z AUTO 03004KT 10SM OVC028 20/16 A3015 RMK AO2 T01950155
KVBW 222135Z AUTO 02003KT 10SM OVC028 20/15 A3015 RMK AO2 T01960153
KVBW 222115Z AUTO 03005KT 10SM OVC028 20/15 A3015 RMK AO2 T01960154
KVBW 222055Z AUTO 03005KT 10SM OVC026 20/15 A3015 RMK AO2 T02000154
KVBW 222035Z AUTO 02004KT 10SM OVC026 20/15 A3015 RMK AO2 T02000154
KVBW 222015Z AUTO 01004KT 10SM OVC024 20/16 A3015 RMK AO2 T02010156
KVBW 221955Z AUTO 02005KT 10SM BKN024 OVC031 20/15 A3015 RMK AO2 T02000153
KVBW 221930Z AUTO 02006KT 10SM OVC024 20/16 A3015 RMK AO2 T02010156
KVBW 221915Z AUTO 01005KT 10SM OVC024 20/16 A3015 RMK AO2 T02020161
KVBW 221855Z AUTO 02004KT 10SM OVC022 20/16 A3016 RMK AO2 T02030160
KVBW 221835Z AUTO 01004KT 10SM OVC022 21/17 A3016 RMK AO2 T02080170